sensor_id;sensor_type;location;lat;lon;timestamp;temperature;humidity
10270;DHT22;5180;50.832;5.390;2023-06-14T00:00:34;27.30;93.30
10270;DHT22;5180;50.832;5.390;2023-06-14T00:03:00;27.30;93.30
10270;DHT22;5180;50.832;5.390;2023-06-14T00:05:26;27.30;93.30
10270;DHT22;5180;50.832;5.390;2023-06-14T00:07:58;27.30;93.30
10270;DHT22;5180;50.832;5.390;2023-06-14T00:10:28;27.30;93.30
10270;DHT22;5180;50.832;5.390;2023-06-14T00:12:59;27.30;93.30
10270;DHT22;5180;50.832;5.390;2023-06-14T00:15:28;27.30;93.30
10270;DHT22;5180;50.832;5.390;2023-06-14T00:17:56;27.30;93.60
10270;DHT22;5180;50.832;5.390;2023-06-14T00:20:22;27.30;93.30
10270;DHT22;5180;50.832;5.390;2023-06-14T00:22:51;27.30;93.30
10270;DHT22;5180;50.832;5.390;2023-06-14T00:25:22;27.30;93.30
10270;DHT22;5180;50.832;5.390;2023-06-14T00:27:49;27.30;93.60
10270;DHT22;5180;50.832;5.390;2023-06-14T00:30:17;27.30;93.30
10270;DHT22;5180;50.832;5.390;2023-06-14T00:32:43;27.30;93.30
10270;DHT22;5180;50.832;5.390;2023-06-14T00:35:12;27.30;93.30
10270;DHT22;5180;50.832;5.390;2023-06-14T00:37:38;27.30;93.30
10270;DHT22;5180;50.832;5.390;2023-06-14T00:40:05;27.30;93.30
10270;DHT22;5180;50.832;5.390;2023-06-14T00:42:33;27.30;93.30
10270;DHT22;5180;50.832;5.390;2023-06-14T00:45:04;27.30;93.30
10270;DHT22;5180;50.832;5.390;2023-06-14T00:47:32;27.30;93.30
10270;DHT22;5180;50.832;5.390;2023-06-14T00:50:01;27.30;93.60
10270;DHT22;5180;50.832;5.390;2023-06-14T00:52:29;27.30;93.30
10270;DHT22;5180;50.832;5.390;2023-06-14T00:54:58;27.30;93.30
10270;DHT22;5180;50.832;5.390;2023-06-14T00:57:23;27.30;93.30
10270;DHT22;5180;50.832;5.390;2023-06-14T00:59:50;27.30;93.30
10270;DHT22;5180;50.832;5.390;2023-06-14T01:02:17;27.30;93.30
10270;DHT22;5180;50.832;5.390;2023-06-14T01:04:46;27.30;93.30
10270;DHT22;5180;50.832;5.390;2023-06-14T01:15:37;27.30;93.30
10270;DHT22;5180;50.832;5.390;2023-06-14T01:18:05;27.30;93.30
10270;DHT22;5180;50.832;5.390;2023-06-14T01:20:46;27.30;93.30
10270;DHT22;5180;50.832;5.390;2023-06-14T01:23:19;27.30;93.30
10270;DHT22;5180;50.832;5.390;2023-06-14T01:25:46;27.30;93.30
10270;DHT22;5180;50.832;5.390;2023-06-14T01:28:15;27.30;93.30
10270;DHT22;5180;50.832;5.390;2023-06-14T01:30:47;27.30;93.30
10270;DHT22;5180;50.832;5.390;2023-06-14T01:33:25;27.30;93.30
10270;DHT22;5180;50.832;5.390;2023-06-14T01:35:53;27.30;93.30
10270;DHT22;5180;50.832;5.390;2023-06-14T01:38:27;27.30;93.30
10270;DHT22;5180;50.832;5.390;2023-06-14T01:40:58;27.30;93.30
10270;DHT22;5180;50.832;5.390;2023-06-14T01:43:25;27.30;93.30
10270;DHT22;5180;50.832;5.390;2023-06-14T01:45:53;27.30;93.30
10270;DHT22;5180;50.832;5.390;2023-06-14T01:48:22;27.30;93.30
10270;DHT22;5180;50.832;5.390;2023-06-14T01:50:51;27.30;93.30
10270;DHT22;5180;50.832;5.390;2023-06-14T01:53:19;27.30;93.30
10270;DHT22;5180;50.832;5.390;2023-06-14T01:55:46;27.30;93.30
10270;DHT22;5180;50.832;5.390;2023-06-14T01:58:14;27.30;93.30
10270;DHT22;5180;50.832;5.390;2023-06-14T02:00:41;27.30;93.30
10270;DHT22;5180;50.832;5.390;2023-06-14T02:03:08;27.30;93.30
10270;DHT22;5180;50.832;5.390;2023-06-14T02:05:39;27.30;93.30
10270;DHT22;5180;50.832;5.390;2023-06-14T02:08:07;27.30;93.20
10270;DHT22;5180;50.832;5.390;2023-06-14T02:10:34;27.30;93.20
10270;DHT22;5180;50.832;5.390;2023-06-14T02:12:59;27.30;93.30
10270;DHT22;5180;50.832;5.390;2023-06-14T02:15:28;27.30;93.20
10270;DHT22;5180;50.832;5.390;2023-06-14T02:18:01;27.30;93.30
10270;DHT22;5180;50.832;5.390;2023-06-14T02:20:32;27.30;93.20
10270;DHT22;5180;50.832;5.390;2023-06-14T02:22:58;27.30;93.20
10270;DHT22;5180;50.832;5.390;2023-06-14T02:25:24;27.30;93.20
10270;DHT22;5180;50.832;5.390;2023-06-14T02:27:55;27.30;93.20
10270;DHT22;5180;50.832;5.390;2023-06-14T02:30:23;27.30;93.20
10270;DHT22;5180;50.832;5.390;2023-06-14T02:32:48;27.30;93.20
10270;DHT22;5180;50.832;5.390;2023-06-14T02:35:16;27.30;93.20
10270;DHT22;5180;50.832;5.390;2023-06-14T02:37:42;27.30;93.20
10270;DHT22;5180;50.832;5.390;2023-06-14T02:40:08;27.30;93.20
10270;DHT22;5180;50.832;5.390;2023-06-14T02:42:38;27.30;93.20
10270;DHT22;5180;50.832;5.390;2023-06-14T02:45:05;27.30;93.20
10270;DHT22;5180;50.832;5.390;2023-06-14T02:47:31;27.30;93.20
10270;DHT22;5180;50.832;5.390;2023-06-14T02:49:57;27.30;93.20
10270;DHT22;5180;50.832;5.390;2023-06-14T02:52:25;27.30;93.20
10270;DHT22;5180;50.832;5.390;2023-06-14T02:54:51;27.30;93.30
10270;DHT22;5180;50.832;5.390;2023-06-14T02:57:20;27.30;93.20
10270;DHT22;5180;50.832;5.390;2023-06-14T02:59:45;27.30;93.20
10270;DHT22;5180;50.832;5.390;2023-06-14T03:02:11;27.30;93.20
10270;DHT22;5180;50.832;5.390;2023-06-14T03:04:37;27.30;93.20
10270;DHT22;5180;50.832;5.390;2023-06-14T03:07:03;27.30;93.20
10270;DHT22;5180;50.832;5.390;2023-06-14T03:09:38;27.30;93.20
10270;DHT22;5180;50.832;5.390;2023-06-14T03:12:04;27.30;93.20
10270;DHT22;5180;50.832;5.390;2023-06-14T03:14:32;27.30;93.20
10270;DHT22;5180;50.832;5.390;2023-06-14T03:16:58;27.30;93.20
10270;DHT22;5180;50.832;5.390;2023-06-14T03:19:24;27.30;93.20
10270;DHT22;5180;50.832;5.390;2023-06-14T03:21:51;27.30;93.20
10270;DHT22;5180;50.832;5.390;2023-06-14T03:24:18;27.30;93.20
10270;DHT22;5180;50.832;5.390;2023-06-14T03:26:44;27.30;93.20
10270;DHT22;5180;50.832;5.390;2023-06-14T03:29:12;27.30;93.20
10270;DHT22;5180;50.832;5.390;2023-06-14T03:32:02;27.30;93.20
10270;DHT22;5180;50.832;5.390;2023-06-14T03:34:30;27.30;93.20
10270;DHT22;5180;50.832;5.390;2023-06-14T03:37:01;27.30;93.20
10270;DHT22;5180;50.832;5.390;2023-06-14T03:39:29;27.30;93.20
10270;DHT22;5180;50.832;5.390;2023-06-14T03:41:55;27.30;93.20
10270;DHT22;5180;50.832;5.390;2023-06-14T03:44:23;27.30;93.20
10270;DHT22;5180;50.832;5.390;2023-06-14T03:46:54;27.30;93.20
10270;DHT22;5180;50.832;5.390;2023-06-14T03:49:20;27.30;93.20
10270;DHT22;5180;50.832;5.390;2023-06-14T03:51:48;27.30;93.20
10270;DHT22;5180;50.832;5.390;2023-06-14T03:54:21;27.30;93.20
10270;DHT22;5180;50.832;5.390;2023-06-14T03:56:52;27.30;93.20
10270;DHT22;5180;50.832;5.390;2023-06-14T03:59:22;27.30;93.20
10270;DHT22;5180;50.832;5.390;2023-06-14T04:01:49;27.30;93.20
10270;DHT22;5180;50.832;5.390;2023-06-14T04:04:19;27.30;93.20
10270;DHT22;5180;50.832;5.390;2023-06-14T04:06:46;27.30;93.20
10270;DHT22;5180;50.832;5.390;2023-06-14T04:09:15;27.30;93.20
10270;DHT22;5180;50.832;5.390;2023-06-14T04:11:44;27.30;93.20
10270;DHT22;5180;50.832;5.390;2023-06-14T04:14:14;27.30;93.20
10270;DHT22;5180;50.832;5.390;2023-06-14T04:16:43;27.30;93.20
10270;DHT22;5180;50.832;5.390;2023-06-14T04:19:08;27.30;93.20
10270;DHT22;5180;50.832;5.390;2023-06-14T04:21:37;27.30;93.20
10270;DHT22;5180;50.832;5.390;2023-06-14T04:24:03;27.30;93.20
10270;DHT22;5180;50.832;5.390;2023-06-14T04:26:32;27.30;93.20
10270;DHT22;5180;50.832;5.390;2023-06-14T04:29:00;27.30;93.20
10270;DHT22;5180;50.832;5.390;2023-06-14T04:31:31;27.30;93.20
10270;DHT22;5180;50.832;5.390;2023-06-14T04:34:03;27.30;93.20
10270;DHT22;5180;50.832;5.390;2023-06-14T04:36:34;27.30;93.20
10270;DHT22;5180;50.832;5.390;2023-06-14T04:39:09;27.30;93.20
10270;DHT22;5180;50.832;5.390;2023-06-14T04:41:40;27.30;93.20
10270;DHT22;5180;50.832;5.390;2023-06-14T04:44:07;27.30;93.20
10270;DHT22;5180;50.832;5.390;2023-06-14T04:46:32;27.30;93.20
10270;DHT22;5180;50.832;5.390;2023-06-14T04:48:58;27.30;93.20
10270;DHT22;5180;50.832;5.390;2023-06-14T04:51:30;27.30;93.20
10270;DHT22;5180;50.832;5.390;2023-06-14T04:53:56;27.30;93.20
10270;DHT22;5180;50.832;5.390;2023-06-14T04:56:26;27.30;93.20
10270;DHT22;5180;50.832;5.390;2023-06-14T04:58:52;27.30;93.20
10270;DHT22;5180;50.832;5.390;2023-06-14T05:01:22;27.30;93.20
10270;DHT22;5180;50.832;5.390;2023-06-14T05:03:49;27.30;93.20
10270;DHT22;5180;50.832;5.390;2023-06-14T05:06:17;27.30;93.20
10270;DHT22;5180;50.832;5.390;2023-06-14T05:08:43;27.30;93.20
10270;DHT22;5180;50.832;5.390;2023-06-14T05:11:08;27.30;93.20
10270;DHT22;5180;50.832;5.390;2023-06-14T05:13:39;27.30;93.20
10270;DHT22;5180;50.832;5.390;2023-06-14T05:16:09;27.30;93.20
10270;DHT22;5180;50.832;5.390;2023-06-14T05:18:35;27.30;93.10
10270;DHT22;5180;50.832;5.390;2023-06-14T05:21:01;27.30;93.20
10270;DHT22;5180;50.832;5.390;2023-06-14T05:23:32;27.30;93.10
10270;DHT22;5180;50.832;5.390;2023-06-14T05:26:02;27.30;93.10
10270;DHT22;5180;50.832;5.390;2023-06-14T05:28:32;27.30;93.10
10270;DHT22;5180;50.832;5.390;2023-06-14T05:31:00;27.30;93.10
10270;DHT22;5180;50.832;5.390;2023-06-14T05:33:26;27.30;93.10
10270;DHT22;5180;50.832;5.390;2023-06-14T05:35:51;27.30;93.40
10270;DHT22;5180;50.832;5.390;2023-06-14T05:38:21;27.30;93.10
10270;DHT22;5180;50.832;5.390;2023-06-14T05:40:47;27.30;93.10
10270;DHT22;5180;50.832;5.390;2023-06-14T05:43:12;27.30;93.10
10270;DHT22;5180;50.832;5.390;2023-06-14T05:45:41;27.30;93.10
10270;DHT22;5180;50.832;5.390;2023-06-14T05:48:06;27.30;93.10
10270;DHT22;5180;50.832;5.390;2023-06-14T05:50:32;27.30;93.10
10270;DHT22;5180;50.832;5.390;2023-06-14T05:52:59;27.30;93.00
10270;DHT22;5180;50.832;5.390;2023-06-14T05:55:24;27.40;93.10
10270;DHT22;5180;50.832;5.390;2023-06-14T05:57:50;27.30;93.00
10270;DHT22;5180;50.832;5.390;2023-06-14T06:00:17;27.30;93.00
10270;DHT22;5180;50.832;5.390;2023-06-14T06:02:48;27.30;93.00
10270;DHT22;5180;50.832;5.390;2023-06-14T06:05:16;27.30;93.00
10270;DHT22;5180;50.832;5.390;2023-06-14T06:07:47;27.30;93.00
10270;DHT22;5180;50.832;5.390;2023-06-14T06:10:13;27.30;92.70
10270;DHT22;5180;50.832;5.390;2023-06-14T06:12:41;27.40;92.40
10270;DHT22;5180;50.832;5.390;2023-06-14T06:15:09;27.30;92.00
10270;DHT22;5180;50.832;5.390;2023-06-14T06:17:38;27.40;91.70
10270;DHT22;5180;50.832;5.390;2023-06-14T06:20:07;27.40;91.60
10270;DHT22;5180;50.832;5.390;2023-06-14T06:22:35;27.40;91.40
10270;DHT22;5180;50.832;5.390;2023-06-14T06:25:04;27.40;91.40
10270;DHT22;5180;50.832;5.390;2023-06-14T06:27:30;27.40;91.40
10270;DHT22;5180;50.832;5.390;2023-06-14T06:29:58;27.40;91.30
10270;DHT22;5180;50.832;5.390;2023-06-14T06:32:24;27.40;91.30
10270;DHT22;5180;50.832;5.390;2023-06-14T06:34:52;27.40;91.30
10270;DHT22;5180;50.832;5.390;2023-06-14T06:37:23;27.30;91.30
10270;DHT22;5180;50.832;5.390;2023-06-14T06:39:49;27.30;91.60
10270;DHT22;5180;50.832;5.390;2023-06-14T06:42:15;27.30;91.40
10270;DHT22;5180;50.832;5.390;2023-06-14T06:44:43;27.30;91.40
10270;DHT22;5180;50.832;5.390;2023-06-14T06:47:09;27.30;91.40
10270;DHT22;5180;50.832;5.390;2023-06-14T06:49:36;27.40;91.70
10270;DHT22;5180;50.832;5.390;2023-06-14T06:52:06;27.40;91.90
10270;DHT22;5180;50.832;5.390;2023-06-14T06:54:33;27.40;92.20
10270;DHT22;5180;50.832;5.390;2023-06-14T06:57:01;27.40;92.40
10270;DHT22;5180;50.832;5.390;2023-06-14T06:59:29;27.40;92.60
10270;DHT22;5180;50.832;5.390;2023-06-14T07:01:58;27.40;92.80
10270;DHT22;5180;50.832;5.390;2023-06-14T07:04:24;27.40;92.90
10270;DHT22;5180;50.832;5.390;2023-06-14T07:06:52;27.40;93.00
10270;DHT22;5180;50.832;5.390;2023-06-14T07:09:22;27.40;93.10
10270;DHT22;5180;50.832;5.390;2023-06-14T07:11:50;27.50;93.30
10270;DHT22;5180;50.832;5.390;2023-06-14T07:14:16;27.50;93.30
10270;DHT22;5180;50.832;5.390;2023-06-14T07:16:46;27.50;93.30
10270;DHT22;5180;50.832;5.390;2023-06-14T07:19:15;27.50;93.30
10270;DHT22;5180;50.832;5.390;2023-06-14T07:21:43;27.60;93.40
10270;DHT22;5180;50.832;5.390;2023-06-14T07:24:11;27.60;93.40
10270;DHT22;5180;50.832;5.390;2023-06-14T07:26:37;27.60;93.40
10270;DHT22;5180;50.832;5.390;2023-06-14T07:29:02;27.70;93.40
10270;DHT22;5180;50.832;5.390;2023-06-14T07:31:31;27.70;93.40
10270;DHT22;5180;50.832;5.390;2023-06-14T07:33:57;27.80;93.40
10270;DHT22;5180;50.832;5.390;2023-06-14T07:36:27;27.80;93.40
10270;DHT22;5180;50.832;5.390;2023-06-14T07:38:58;27.80;93.30
10270;DHT22;5180;50.832;5.390;2023-06-14T07:41:24;27.90;93.40
10270;DHT22;5180;50.832;5.390;2023-06-14T07:43:50;27.90;93.30
10270;DHT22;5180;50.832;5.390;2023-06-14T07:46:18;28.00;93.30
10270;DHT22;5180;50.832;5.390;2023-06-14T07:48:44;28.00;93.30
10270;DHT22;5180;50.832;5.390;2023-06-14T07:51:10;28.00;93.30
10270;DHT22;5180;50.832;5.390;2023-06-14T07:53:38;28.00;93.30
10270;DHT22;5180;50.832;5.390;2023-06-14T07:56:04;28.10;93.20
10270;DHT22;5180;50.832;5.390;2023-06-14T07:58:33;28.20;93.10
10270;DHT22;5180;50.832;5.390;2023-06-14T08:01:01;28.20;93.00
10270;DHT22;5180;50.832;5.390;2023-06-14T08:03:31;28.20;92.60
10270;DHT22;5180;50.832;5.390;2023-06-14T08:05:58;28.20;92.40
10270;DHT22;5180;50.832;5.390;2023-06-14T08:08:28;28.20;92.10
10270;DHT22;5180;50.832;5.390;2023-06-14T08:10:54;28.20;91.90
10270;DHT22;5180;50.832;5.390;2023-06-14T08:13:24;28.30;91.80
10270;DHT22;5180;50.832;5.390;2023-06-14T08:15:50;28.30;91.60
10270;DHT22;5180;50.832;5.390;2023-06-14T08:18:16;28.30;91.40
10270;DHT22;5180;50.832;5.390;2023-06-14T08:20:42;28.30;91.30
10270;DHT22;5180;50.832;5.390;2023-06-14T08:23:13;28.30;91.10
10270;DHT22;5180;50.832;5.390;2023-06-14T08:25:41;28.30;90.90
10270;DHT22;5180;50.832;5.390;2023-06-14T08:28:11;28.30;90.80
10270;DHT22;5180;50.832;5.390;2023-06-14T08:30:40;28.30;90.70
10270;DHT22;5180;50.832;5.390;2023-06-14T08:33:10;28.30;90.60
10270;DHT22;5180;50.832;5.390;2023-06-14T08:35:36;28.40;90.50
10270;DHT22;5180;50.832;5.390;2023-06-14T08:38:05;28.40;90.40
10270;DHT22;5180;50.832;5.390;2023-06-14T08:40:33;28.40;90.30
10270;DHT22;5180;50.832;5.390;2023-06-14T08:43:04;28.40;90.30
10270;DHT22;5180;50.832;5.390;2023-06-14T08:45:35;28.40;90.20
10270;DHT22;5180;50.832;5.390;2023-06-14T08:48:01;28.40;90.10
10270;DHT22;5180;50.832;5.390;2023-06-14T08:50:30;28.40;90.00
10270;DHT22;5180;50.832;5.390;2023-06-14T08:53:01;28.40;89.60
10270;DHT22;5180;50.832;5.390;2023-06-14T08:55:28;28.50;89.50
10270;DHT22;5180;50.832;5.390;2023-06-14T08:57:56;28.50;89.40
10270;DHT22;5180;50.832;5.390;2023-06-14T09:00:28;28.50;89.10
10270;DHT22;5180;50.832;5.390;2023-06-14T09:02:55;28.60;88.90
10270;DHT22;5180;50.832;5.390;2023-06-14T09:05:25;28.60;88.70
10270;DHT22;5180;50.832;5.390;2023-06-14T09:07:51;28.60;88.60
10270;DHT22;5180;50.832;5.390;2023-06-14T09:10:20;28.60;88.50
10270;DHT22;5180;50.832;5.390;2023-06-14T09:12:46;28.60;88.30
10270;DHT22;5180;50.832;5.390;2023-06-14T09:15:12;28.70;88.20
10270;DHT22;5180;50.832;5.390;2023-06-14T09:17:39;28.70;88.30
10270;DHT22;5180;50.832;5.390;2023-06-14T09:20:06;28.70;88.60
10270;DHT22;5180;50.832;5.390;2023-06-14T09:22:39;28.80;89.00
10270;DHT22;5180;50.832;5.390;2023-06-14T09:25:05;28.80;89.20
10270;DHT22;5180;50.832;5.390;2023-06-14T09:27:33;28.80;89.40
10270;DHT22;5180;50.832;5.390;2023-06-14T09:29:59;28.80;89.60
10270;DHT22;5180;50.832;5.390;2023-06-14T09:32:25;28.90;89.90
10270;DHT22;5180;50.832;5.390;2023-06-14T09:34:53;28.90;90.00
10270;DHT22;5180;50.832;5.390;2023-06-14T09:37:32;28.90;90.00
10270;DHT22;5180;50.832;5.390;2023-06-14T09:40:03;28.90;90.00
10270;DHT22;5180;50.832;5.390;2023-06-14T09:42:32;28.90;90.00
10270;DHT22;5180;50.832;5.390;2023-06-14T09:45:02;28.90;90.00
10270;DHT22;5180;50.832;5.390;2023-06-14T09:47:28;28.90;90.00
10270;DHT22;5180;50.832;5.390;2023-06-14T09:49:55;28.90;90.00
10270;DHT22;5180;50.832;5.390;2023-06-14T09:52:24;28.90;90.10
10270;DHT22;5180;50.832;5.390;2023-06-14T09:54:55;28.90;90.10
10270;DHT22;5180;50.832;5.390;2023-06-14T09:57:27;28.80;90.10
10270;DHT22;5180;50.832;5.390;2023-06-14T10:00:01;28.80;90.10
10270;DHT22;5180;50.832;5.390;2023-06-14T10:02:35;28.80;90.20
10270;DHT22;5180;50.832;5.390;2023-06-14T10:05:11;28.70;90.50
10270;DHT22;5180;50.832;5.390;2023-06-14T10:07:52;28.70;90.20
10270;DHT22;5180;50.832;5.390;2023-06-14T10:10:22;28.70;90.30
10270;DHT22;5180;50.832;5.390;2023-06-14T10:12:48;28.70;90.30
10270;DHT22;5180;50.832;5.390;2023-06-14T10:15:24;28.60;90.30
10270;DHT22;5180;50.832;5.390;2023-06-14T10:17:57;28.50;90.30
10270;DHT22;5180;50.832;5.390;2023-06-14T10:20:37;28.60;90.30
10270;DHT22;5180;50.832;5.390;2023-06-14T10:23:10;28.50;90.30
10270;DHT22;5180;50.832;5.390;2023-06-14T10:25:38;28.50;90.20
10270;DHT22;5180;50.832;5.390;2023-06-14T10:28:18;28.50;90.20
10270;DHT22;5180;50.832;5.390;2023-06-14T10:31:14;28.50;90.30
10270;DHT22;5180;50.832;5.390;2023-06-14T10:36:26;28.50;90.30
10270;DHT22;5180;50.832;5.390;2023-06-14T10:39:19;28.50;90.40
10270;DHT22;5180;50.832;5.390;2023-06-14T10:41:57;28.50;90.40
10270;DHT22;5180;50.832;5.390;2023-06-14T10:46:58;28.60;90.50
10270;DHT22;5180;50.832;5.390;2023-06-14T10:49:41;28.50;90.60
10270;DHT22;5180;50.832;5.390;2023-06-14T10:52:11;28.50;90.60
10270;DHT22;5180;50.832;5.390;2023-06-14T10:57:32;28.50;90.70
10270;DHT22;5180;50.832;5.390;2023-06-14T10:59:59;28.50;90.80
10270;DHT22;5180;50.832;5.390;2023-06-14T11:05:24;28.40;90.90
10270;DHT22;5180;50.832;5.390;2023-06-14T11:10:54;28.50;91.10
10270;DHT22;5180;50.832;5.390;2023-06-14T11:13:26;28.40;91.00
10270;DHT22;5180;50.832;5.390;2023-06-14T11:15:55;28.50;91.00
10270;DHT22;5180;50.832;5.390;2023-06-14T11:18:23;28.40;91.00
10270;DHT22;5180;50.832;5.390;2023-06-14T11:20:57;28.40;91.10
10270;DHT22;5180;50.832;5.390;2023-06-14T11:23:25;28.40;91.10
10270;DHT22;5180;50.832;5.390;2023-06-14T11:25:53;28.30;91.10
10270;DHT22;5180;50.832;5.390;2023-06-14T11:28:21;28.30;91.10
10270;DHT22;5180;50.832;5.390;2023-06-14T11:30:59;28.30;91.10
10270;DHT22;5180;50.832;5.390;2023-06-14T11:33:27;28.30;91.20
10270;DHT22;5180;50.832;5.390;2023-06-14T11:35:53;28.30;91.20
10270;DHT22;5180;50.832;5.390;2023-06-14T11:38:21;28.30;91.20
10270;DHT22;5180;50.832;5.390;2023-06-14T11:40:49;28.30;91.20
10270;DHT22;5180;50.832;5.390;2023-06-14T11:43:16;28.30;91.30
10270;DHT22;5180;50.832;5.390;2023-06-14T11:45:43;28.30;91.20
10270;DHT22;5180;50.832;5.390;2023-06-14T11:48:15;28.30;91.20
10270;DHT22;5180;50.832;5.390;2023-06-14T11:50:43;28.20;91.20
10270;DHT22;5180;50.832;5.390;2023-06-14T11:53:12;28.20;91.20
10270;DHT22;5180;50.832;5.390;2023-06-14T11:55:44;28.20;91.20
10270;DHT22;5180;50.832;5.390;2023-06-14T11:58:13;28.20;91.20
10270;DHT22;5180;50.832;5.390;2023-06-14T12:00:40;28.20;91.20
10270;DHT22;5180;50.832;5.390;2023-06-14T12:03:07;28.20;91.20
10270;DHT22;5180;50.832;5.390;2023-06-14T12:05:35;28.20;91.20
10270;DHT22;5180;50.832;5.390;2023-06-14T12:08:04;28.20;91.20
10270;DHT22;5180;50.832;5.390;2023-06-14T12:10:41;28.20;91.30
10270;DHT22;5180;50.832;5.390;2023-06-14T12:13:09;28.20;91.30
10270;DHT22;5180;50.832;5.390;2023-06-14T12:15:37;28.20;91.20
10270;DHT22;5180;50.832;5.390;2023-06-14T12:18:06;28.20;91.30
10270;DHT22;5180;50.832;5.390;2023-06-14T12:20:35;28.10;91.20
10270;DHT22;5180;50.832;5.390;2023-06-14T12:23:05;28.10;91.20
10270;DHT22;5180;50.832;5.390;2023-06-14T12:25:34;28.10;91.30
10270;DHT22;5180;50.832;5.390;2023-06-14T12:28:10;28.10;91.30
10270;DHT22;5180;50.832;5.390;2023-06-14T12:30:39;28.00;91.30
10270;DHT22;5180;50.832;5.390;2023-06-14T12:33:06;28.10;91.30
10270;DHT22;5180;50.832;5.390;2023-06-14T12:35:32;28.00;91.30
10270;DHT22;5180;50.832;5.390;2023-06-14T12:38:00;28.10;91.30
10270;DHT22;5180;50.832;5.390;2023-06-14T12:40:26;28.00;91.30
10270;DHT22;5180;50.832;5.390;2023-06-14T12:42:54;28.10;91.40
10270;DHT22;5180;50.832;5.390;2023-06-14T12:45:20;28.00;91.60
10270;DHT22;5180;50.832;5.390;2023-06-14T12:47:46;28.00;91.30
10270;DHT22;5180;50.832;5.390;2023-06-14T12:50:22;28.00;91.40
10270;DHT22;5180;50.832;5.390;2023-06-14T12:52:52;28.00;91.40
10270;DHT22;5180;50.832;5.390;2023-06-14T12:55:18;28.00;91.30
10270;DHT22;5180;50.832;5.390;2023-06-14T12:57:45;28.00;91.30
10270;DHT22;5180;50.832;5.390;2023-06-14T13:00:11;28.00;91.40
10270;DHT22;5180;50.832;5.390;2023-06-14T13:02:38;28.00;91.40
10270;DHT22;5180;50.832;5.390;2023-06-14T13:05:04;28.00;91.40
10270;DHT22;5180;50.832;5.390;2023-06-14T13:07:33;28.00;91.30
10270;DHT22;5180;50.832;5.390;2023-06-14T13:10:05;28.00;91.20
10270;DHT22;5180;50.832;5.390;2023-06-14T13:12:31;28.00;91.20
10270;DHT22;5180;50.832;5.390;2023-06-14T13:14:59;28.00;91.20
10270;DHT22;5180;50.832;5.390;2023-06-14T13:17:25;28.00;91.10
10270;DHT22;5180;50.832;5.390;2023-06-14T13:19:51;28.00;91.10
10270;DHT22;5180;50.832;5.390;2023-06-14T13:22:17;28.00;91.10
10270;DHT22;5180;50.832;5.390;2023-06-14T13:24:45;28.00;91.10
10270;DHT22;5180;50.832;5.390;2023-06-14T13:27:11;28.00;91.10
10270;DHT22;5180;50.832;5.390;2023-06-14T13:29:44;28.00;91.10
10270;DHT22;5180;50.832;5.390;2023-06-14T13:32:10;28.00;91.10
10270;DHT22;5180;50.832;5.390;2023-06-14T13:34:39;28.00;91.10
10270;DHT22;5180;50.832;5.390;2023-06-14T13:37:05;28.00;91.10
10270;DHT22;5180;50.832;5.390;2023-06-14T13:39:31;28.00;91.20
10270;DHT22;5180;50.832;5.390;2023-06-14T13:41:58;28.00;91.20
10270;DHT22;5180;50.832;5.390;2023-06-14T13:44:27;28.00;91.20
10270;DHT22;5180;50.832;5.390;2023-06-14T13:46:55;28.00;91.20
10270;DHT22;5180;50.832;5.390;2023-06-14T13:49:24;28.00;91.20
10270;DHT22;5180;50.832;5.390;2023-06-14T13:51:55;28.00;91.20
10270;DHT22;5180;50.832;5.390;2023-06-14T13:54:26;28.00;91.20
10270;DHT22;5180;50.832;5.390;2023-06-14T13:56:52;28.00;91.30
10270;DHT22;5180;50.832;5.390;2023-06-14T13:59:22;28.00;91.30
10270;DHT22;5180;50.832;5.390;2023-06-14T14:01:50;28.00;91.30
10270;DHT22;5180;50.832;5.390;2023-06-14T14:04:16;27.90;91.30
10270;DHT22;5180;50.832;5.390;2023-06-14T14:06:43;27.90;91.30
10270;DHT22;5180;50.832;5.390;2023-06-14T14:09:11;28.00;91.30
10270;DHT22;5180;50.832;5.390;2023-06-14T14:11:38;27.90;91.30
10270;DHT22;5180;50.832;5.390;2023-06-14T14:14:05;27.90;91.60
10270;DHT22;5180;50.832;5.390;2023-06-14T14:16:31;27.90;91.40
10270;DHT22;5180;50.832;5.390;2023-06-14T14:18:57;27.90;91.40
10270;DHT22;5180;50.832;5.390;2023-06-14T14:21:25;27.90;91.40
10270;DHT22;5180;50.832;5.390;2023-06-14T14:23:53;27.90;91.40
10270;DHT22;5180;50.832;5.390;2023-06-14T14:26:20;27.90;91.40
10270;DHT22;5180;50.832;5.390;2023-06-14T14:28:51;27.90;91.40
10270;DHT22;5180;50.832;5.390;2023-06-14T14:31:19;27.90;91.40
10270;DHT22;5180;50.832;5.390;2023-06-14T14:33:47;27.90;91.40
10270;DHT22;5180;50.832;5.390;2023-06-14T14:36:13;27.90;91.40
10270;DHT22;5180;50.832;5.390;2023-06-14T14:38:39;27.90;91.40
10270;DHT22;5180;50.832;5.390;2023-06-14T14:41:07;27.80;91.40
10270;DHT22;5180;50.832;5.390;2023-06-14T14:43:33;27.80;91.40
10270;DHT22;5180;50.832;5.390;2023-06-14T14:46:01;27.80;91.40
10270;DHT22;5180;50.832;5.390;2023-06-14T14:48:27;27.80;91.40
10270;DHT22;5180;50.832;5.390;2023-06-14T14:50:55;27.80;91.40
10270;DHT22;5180;50.832;5.390;2023-06-14T14:53:24;27.80;91.40
10270;DHT22;5180;50.832;5.390;2023-06-14T14:55:53;27.80;91.40
10270;DHT22;5180;50.832;5.390;2023-06-14T14:58:21;27.80;91.50
10270;DHT22;5180;50.832;5.390;2023-06-14T15:00:48;27.80;91.50
10270;DHT22;5180;50.832;5.390;2023-06-14T15:03:14;27.80;91.50
10270;DHT22;5180;50.832;5.390;2023-06-14T15:05:40;27.80;91.40
10270;DHT22;5180;50.832;5.390;2023-06-14T15:08:09;27.80;91.10
10270;DHT22;5180;50.832;5.390;2023-06-14T15:10:40;27.80;90.90
10270;DHT22;5180;50.832;5.390;2023-06-14T15:13:09;27.80;90.70
10270;DHT22;5180;50.832;5.390;2023-06-14T15:15:36;27.80;90.80
10270;DHT22;5180;50.832;5.390;2023-06-14T15:18:05;27.80;90.40
10270;DHT22;5180;50.832;5.390;2023-06-14T15:20:33;27.80;90.30
10270;DHT22;5180;50.832;5.390;2023-06-14T15:22:59;27.80;90.10
10270;DHT22;5180;50.832;5.390;2023-06-14T15:25:27;27.80;90.00
10270;DHT22;5180;50.832;5.390;2023-06-14T15:27:55;27.70;89.70
10270;DHT22;5180;50.832;5.390;2023-06-14T15:30:21;27.80;89.30
10270;DHT22;5180;50.832;5.390;2023-06-14T15:32:47;27.80;88.90
10270;DHT22;5180;50.832;5.390;2023-06-14T15:35:17;27.90;88.60
10270;DHT22;5180;50.832;5.390;2023-06-14T15:37:50;27.90;88.30
10270;DHT22;5180;50.832;5.390;2023-06-14T15:40:16;27.90;88.50
10270;DHT22;5180;50.832;5.390;2023-06-14T15:42:43;27.90;88.80
10270;DHT22;5180;50.832;5.390;2023-06-14T15:45:11;27.90;88.70
10270;DHT22;5180;50.832;5.390;2023-06-14T15:47:43;27.80;88.70
10270;DHT22;5180;50.832;5.390;2023-06-14T15:50:10;27.80;89.00
10270;DHT22;5180;50.832;5.390;2023-06-14T15:52:37;27.80;88.80
10270;DHT22;5180;50.832;5.390;2023-06-14T15:55:06;27.80;88.90
10270;DHT22;5180;50.832;5.390;2023-06-14T15:57:32;27.80;89.00
10270;DHT22;5180;50.832;5.390;2023-06-14T15:59:58;27.80;88.80
10270;DHT22;5180;50.832;5.390;2023-06-14T16:02:26;27.90;88.70
10270;DHT22;5180;50.832;5.390;2023-06-14T16:04:52;27.90;88.80
10270;DHT22;5180;50.832;5.390;2023-06-14T16:07:21;28.00;88.80
10270;DHT22;5180;50.832;5.390;2023-06-14T16:09:47;28.00;88.40
10270;DHT22;5180;50.832;5.390;2023-06-14T16:12:13;28.10;88.30
10270;DHT22;5180;50.832;5.390;2023-06-14T16:14:38;28.20;88.50